sensor_id;sensor_type;location;lat;lon;timestamp;temperature;humidity
76345;DHT22;65160;50.504;3.666;2023-02-17T00:01:14;11.38;85.55
76345;DHT22;65160;50.504;3.666;2023-02-17T00:03:41;11.35;85.67
76345;DHT22;65160;50.504;3.666;2023-02-17T00:06:08;11.31;85.24
76345;DHT22;65160;50.504;3.666;2023-02-17T00:08:34;11.47;84.70
76345;DHT22;65160;50.504;3.666;2023-02-17T00:11:00;11.41;83.80
76345;DHT22;65160;50.504;3.666;2023-02-17T00:13:25;11.43;83.84
76345;DHT22;65160;50.504;3.666;2023-02-17T00:15:51;11.31;83.82
76345;DHT22;65160;50.504;3.666;2023-02-17T00:18:17;11.33;84.03
76345;DHT22;65160;50.504;3.666;2023-02-17T00:20:42;11.31;84.21
76345;DHT22;65160;50.504;3.666;2023-02-17T00:23:08;11.34;83.72
76345;DHT22;65160;50.504;3.666;2023-02-17T00:25:33;11.30;83.63
76345;DHT22;65160;50.504;3.666;2023-02-17T00:27:59;11.31;84.30
76345;DHT22;65160;50.504;3.666;2023-02-17T00:30:25;11.28;84.12
76345;DHT22;65160;50.504;3.666;2023-02-17T00:32:51;11.27;83.78
76345;DHT22;65160;50.504;3.666;2023-02-17T00:35:16;11.24;83.73
76345;DHT22;65160;50.504;3.666;2023-02-17T00:37:42;11.13;83.52
76345;DHT22;65160;50.504;3.666;2023-02-17T00:40:11;10.99;83.91
76345;DHT22;65160;50.504;3.666;2023-02-17T00:42:36;10.96;84.14
76345;DHT22;65160;50.504;3.666;2023-02-17T00:45:02;10.96;84.15
76345;DHT22;65160;50.504;3.666;2023-02-17T00:47:27;10.93;84.21
76345;DHT22;65160;50.504;3.666;2023-02-17T00:49:53;10.93;84.14
76345;DHT22;65160;50.504;3.666;2023-02-17T00:52:18;10.95;83.97
76345;DHT22;65160;50.504;3.666;2023-02-17T00:54:44;10.95;84.08
76345;DHT22;65160;50.504;3.666;2023-02-17T00:57:10;10.95;84.15
76345;DHT22;65160;50.504;3.666;2023-02-17T00:59:35;10.96;84.32
76345;DHT22;65160;50.504;3.666;2023-02-17T01:02:00;11.00;84.35
76345;DHT22;65160;50.504;3.666;2023-02-17T01:04:26;10.96;84.35
76345;DHT22;65160;50.504;3.666;2023-02-17T01:06:52;10.97;84.48
76345;DHT22;65160;50.504;3.666;2023-02-17T01:09:17;10.95;84.42
76345;DHT22;65160;50.504;3.666;2023-02-17T01:11:43;10.97;84.25
76345;DHT22;65160;50.504;3.666;2023-02-17T01:14:11;10.96;84.25
76345;DHT22;65160;50.504;3.666;2023-02-17T01:16:39;10.92;84.39
76345;DHT22;65160;50.504;3.666;2023-02-17T01:19:11;10.91;84.01
76345;DHT22;65160;50.504;3.666;2023-02-17T01:21:37;10.92;83.88
76345;DHT22;65160;50.504;3.666;2023-02-17T01:24:05;10.89;83.66
76345;DHT22;65160;50.504;3.666;2023-02-17T01:26:33;10.83;83.96
76345;DHT22;65160;50.504;3.666;2023-02-17T01:28:59;10.80;84.13
76345;DHT22;65160;50.504;3.666;2023-02-17T01:31:25;10.82;83.92
76345;DHT22;65160;50.504;3.666;2023-02-17T01:33:52;10.73;83.96
76345;DHT22;65160;50.504;3.666;2023-02-17T01:36:18;10.73;84.10
76345;DHT22;65160;50.504;3.666;2023-02-17T01:38:44;10.72;84.15
76345;DHT22;65160;50.504;3.666;2023-02-17T01:41:15;10.72;84.12
76345;DHT22;65160;50.504;3.666;2023-02-17T01:43:41;10.71;83.99
76345;DHT22;65160;50.504;3.666;2023-02-17T01:46:07;10.69;84.14
76345;DHT22;65160;50.504;3.666;2023-02-17T01:48:39;10.69;83.99
76345;DHT22;65160;50.504;3.666;2023-02-17T01:51:17;10.67;84.00
76345;DHT22;65160;50.504;3.666;2023-02-17T01:53:54;10.65;84.11
76345;DHT22;65160;50.504;3.666;2023-02-17T01:56:22;10.62;84.15
76345;DHT22;65160;50.504;3.666;2023-02-17T01:58:52;10.58;84.35
76345;DHT22;65160;50.504;3.666;2023-02-17T02:01:19;10.61;84.25
76345;DHT22;65160;50.504;3.666;2023-02-17T02:03:46;10.59;84.39
76345;DHT22;65160;50.504;3.666;2023-02-17T02:06:16;10.55;84.51
76345;DHT22;65160;50.504;3.666;2023-02-17T02:09:04;10.54;84.45
76345;DHT22;65160;50.504;3.666;2023-02-17T02:11:31;10.50;84.66
76345;DHT22;65160;50.504;3.666;2023-02-17T02:13:57;10.50;84.59
76345;DHT22;65160;50.504;3.666;2023-02-17T02:16:40;10.47;84.73
76345;DHT22;65160;50.504;3.666;2023-02-17T02:25:15;10.50;84.72
76345;DHT22;65160;50.504;3.666;2023-02-17T02:33:45;10.50;84.51
76345;DHT22;65160;50.504;3.666;2023-02-17T02:36:26;10.54;84.49
76345;DHT22;65160;50.504;3.666;2023-02-17T02:39:00;10.51;84.56
76345;DHT22;65160;50.504;3.666;2023-02-17T02:41:35;10.52;84.64
76345;DHT22;65160;50.504;3.666;2023-02-17T02:44:09;10.51;84.55
76345;DHT22;65160;50.504;3.666;2023-02-17T02:46:37;10.52;84.60
76345;DHT22;65160;50.504;3.666;2023-02-17T02:49:03;10.52;84.70
76345;DHT22;65160;50.504;3.666;2023-02-17T02:51:42;10.51;84.86
76345;DHT22;65160;50.504;3.666;2023-02-17T02:54:39;10.47;84.97
76345;DHT22;65160;50.504;3.666;2023-02-17T03:02:49;10.45;84.96
76345;DHT22;65160;50.504;3.666;2023-02-17T03:05:35;10.48;84.90
76345;DHT22;65160;50.504;3.666;2023-02-17T03:08:21;10.42;85.06
76345;DHT22;65160;50.504;3.666;2023-02-17T03:10:50;10.45;85.04
76345;DHT22;65160;50.504;3.666;2023-02-17T03:13:18;10.40;85.21
76345;DHT22;65160;50.504;3.666;2023-02-17T03:15:44;10.38;85.24
76345;DHT22;65160;50.504;3.666;2023-02-17T03:18:10;10.41;85.10
76345;DHT22;65160;50.504;3.666;2023-02-17T03:20:44;10.44;85.09
76345;DHT22;65160;50.504;3.666;2023-02-17T03:23:10;10.40;84.98
76345;DHT22;65160;50.504;3.666;2023-02-17T03:25:36;10.40;85.09
76345;DHT22;65160;50.504;3.666;2023-02-17T03:28:01;10.42;85.07
76345;DHT22;65160;50.504;3.666;2023-02-17T03:30:27;10.41;85.14
76345;DHT22;65160;50.504;3.666;2023-02-17T03:32:53;10.41;85.08
76345;DHT22;65160;50.504;3.666;2023-02-17T03:35:18;10.36;85.27
76345;DHT22;65160;50.504;3.666;2023-02-17T03:37:44;10.41;85.15
76345;DHT22;65160;50.504;3.666;2023-02-17T03:40:09;10.42;85.16
76345;DHT22;65160;50.504;3.666;2023-02-17T03:42:35;10.40;85.07
76345;DHT22;65160;50.504;3.666;2023-02-17T03:45:01;10.37;85.24
76345;DHT22;65160;50.504;3.666;2023-02-17T03:47:27;10.37;85.15
76345;DHT22;65160;50.504;3.666;2023-02-17T03:49:52;10.36;85.16
76345;DHT22;65160;50.504;3.666;2023-02-17T03:52:18;10.34;85.23
76345;DHT22;65160;50.504;3.666;2023-02-17T03:54:44;10.34;85.13
76345;DHT22;65160;50.504;3.666;2023-02-17T03:57:09;10.37;84.87
76345;DHT22;65160;50.504;3.666;2023-02-17T03:59:35;10.33;84.96
76345;DHT22;65160;50.504;3.666;2023-02-17T04:02:01;10.34;85.00
76345;DHT22;65160;50.504;3.666;2023-02-17T04:04:27;10.36;84.97
76345;DHT22;65160;50.504;3.666;2023-02-17T04:06:53;10.33;85.14
76345;DHT22;65160;50.504;3.666;2023-02-17T04:09:18;10.37;85.06
76345;DHT22;65160;50.504;3.666;2023-02-17T04:11:44;10.33;85.18
76345;DHT22;65160;50.504;3.666;2023-02-17T04:14:09;10.37;85.09
76345;DHT22;65160;50.504;3.666;2023-02-17T04:16:35;10.36;85.12
76345;DHT22;65160;50.504;3.666;2023-02-17T04:19:04;10.38;85.26
76345;DHT22;65160;50.504;3.666;2023-02-17T04:21:29;10.33;85.44
76345;DHT22;65160;50.504;3.666;2023-02-17T04:23:55;10.40;85.35
76345;DHT22;65160;50.504;3.666;2023-02-17T04:26:21;10.37;85.48
76345;DHT22;65160;50.504;3.666;2023-02-17T04:28:46;10.33;85.71
76345;DHT22;65160;50.504;3.666;2023-02-17T04:31:12;10.33;85.87
76345;DHT22;65160;50.504;3.666;2023-02-17T04:33:37;10.30;86.01
76345;DHT22;65160;50.504;3.666;2023-02-17T04:36:04;10.31;86.10
76345;DHT22;65160;50.504;3.666;2023-02-17T04:38:31;10.29;86.16
76345;DHT22;65160;50.504;3.666;2023-02-17T04:40:58;10.30;86.12
76345;DHT22;65160;50.504;3.666;2023-02-17T04:43:25;10.30;86.21
76345;DHT22;65160;50.504;3.666;2023-02-17T04:45:51;10.31;86.19
76345;DHT22;65160;50.504;3.666;2023-02-17T04:48:17;10.31;86.14
76345;DHT22;65160;50.504;3.666;2023-02-17T04:50:43;10.33;86.10
76345;DHT22;65160;50.504;3.666;2023-02-17T04:53:08;10.30;86.14
76345;DHT22;65160;50.504;3.666;2023-02-17T04:55:34;10.33;86.16
76345;DHT22;65160;50.504;3.666;2023-02-17T04:57:59;10.31;86.16
76345;DHT22;65160;50.504;3.666;2023-02-17T05:00:25;10.30;86.21
76345;DHT22;65160;50.504;3.666;2023-02-17T05:02:51;10.27;86.24
76345;DHT22;65160;50.504;3.666;2023-02-17T05:05:16;10.27;86.38
76345;DHT22;65160;50.504;3.666;2023-02-17T05:07:44;10.30;86.38
76345;DHT22;65160;50.504;3.666;2023-02-17T05:10:11;10.29;86.49
76345;DHT22;65160;50.504;3.666;2023-02-17T05:12:36;10.29;86.56
76345;DHT22;65160;50.504;3.666;2023-02-17T05:15:03;10.29;86.60
76345;DHT22;65160;50.504;3.666;2023-02-17T05:17:28;10.25;86.70
76345;DHT22;65160;50.504;3.666;2023-02-17T05:19:54;10.27;86.78
76345;DHT22;65160;50.504;3.666;2023-02-17T05:22:19;10.29;86.83
76345;DHT22;65160;50.504;3.666;2023-02-17T05:24:45;10.29;86.77
76345;DHT22;65160;50.504;3.666;2023-02-17T05:27:10;10.27;86.84
76345;DHT22;65160;50.504;3.666;2023-02-17T05:29:36;10.25;87.08
76345;DHT22;65160;50.504;3.666;2023-02-17T05:32:01;10.24;87.29
76345;DHT22;65160;50.504;3.666;2023-02-17T05:34:27;10.24;87.35
76345;DHT22;65160;50.504;3.666;2023-02-17T05:36:52;10.21;87.50
76345;DHT22;65160;50.504;3.666;2023-02-17T05:39:18;10.21;87.57
76345;DHT22;65160;50.504;3.666;2023-02-17T05:41:43;10.18;87.66
76345;DHT22;65160;50.504;3.666;2023-02-17T05:44:09;10.18;87.76
76345;DHT22;65160;50.504;3.666;2023-02-17T05:46:34;10.18;87.88
76345;DHT22;65160;50.504;3.666;2023-02-17T05:49:00;10.23;87.84
76345;DHT22;65160;50.504;3.666;2023-02-17T05:51:25;10.18;87.94
76345;DHT22;65160;50.504;3.666;2023-02-17T05:53:51;10.20;88.05
76345;DHT22;65160;50.504;3.666;2023-02-17T05:56:16;10.18;88.05
76345;DHT22;65160;50.504;3.666;2023-02-17T05:58:41;10.23;87.98
76345;DHT22;65160;50.504;3.666;2023-02-17T06:01:08;10.24;88.10
76345;DHT22;65160;50.504;3.666;2023-02-17T06:03:34;10.23;88.09
76345;DHT22;65160;50.504;3.666;2023-02-17T06:06:00;10.24;88.26
76345;DHT22;65160;50.504;3.666;2023-02-17T06:08:25;10.27;88.20
76345;DHT22;65160;50.504;3.666;2023-02-17T06:10:53;10.25;88.40
76345;DHT22;65160;50.504;3.666;2023-02-17T06:13:19;10.27;88.36
76345;DHT22;65160;50.504;3.666;2023-02-17T06:15:45;10.30;88.42
76345;DHT22;65160;50.504;3.666;2023-02-17T06:18:11;10.34;88.28
76345;DHT22;65160;50.504;3.666;2023-02-17T06:20:36;10.30;88.46
76345;DHT22;65160;50.504;3.666;2023-02-17T06:23:02;10.33;88.51
76345;DHT22;65160;50.504;3.666;2023-02-17T06:25:28;10.34;88.72
76345;DHT22;65160;50.504;3.666;2023-02-17T06:27:53;10.34;88.67
76345;DHT22;65160;50.504;3.666;2023-02-17T06:30:19;10.37;88.75
76345;DHT22;65160;50.504;3.666;2023-02-17T06:32:45;10.37;88.81
76345;DHT22;65160;50.504;3.666;2023-02-17T06:35:11;10.34;89.01
76345;DHT22;65160;50.504;3.666;2023-02-17T06:37:37;10.36;89.15
76345;DHT22;65160;50.504;3.666;2023-02-17T06:40:02;10.37;89.26
76345;DHT22;65160;50.504;3.666;2023-02-17T06:42:28;10.40;89.20
76345;DHT22;65160;50.504;3.666;2023-02-17T06:44:53;10.42;89.20
76345;DHT22;65160;50.504;3.666;2023-02-17T06:47:19;10.41;89.56
76345;DHT22;65160;50.504;3.666;2023-02-17T06:49:44;10.41;89.62
76345;DHT22;65160;50.504;3.666;2023-02-17T06:52:10;10.38;89.82
76345;DHT22;65160;50.504;3.666;2023-02-17T06:54:35;10.41;90.08
76345;DHT22;65160;50.504;3.666;2023-02-17T06:57:01;10.44;90.06
76345;DHT22;65160;50.504;3.666;2023-02-17T06:59:26;10.47;90.16
76345;DHT22;65160;50.504;3.666;2023-02-17T07:01:52;10.47;90.12
76345;DHT22;65160;50.504;3.666;2023-02-17T07:04:17;10.45;90.09
76345;DHT22;65160;50.504;3.666;2023-02-17T07:06:43;10.48;90.11
76345;DHT22;65160;50.504;3.666;2023-02-17T07:09:08;10.52;90.14
76345;DHT22;65160;50.504;3.666;2023-02-17T07:11:37;10.57;90.22
76345;DHT22;65160;50.504;3.666;2023-02-17T07:14:03;10.59;90.03
76345;DHT22;65160;50.504;3.666;2023-02-17T07:16:29;10.61;90.03
76345;DHT22;65160;50.504;3.666;2023-02-17T07:18:54;10.68;89.87
76345;DHT22;65160;50.504;3.666;2023-02-17T07:21:20;10.68;89.78
76345;DHT22;65160;50.504;3.666;2023-02-17T07:23:45;10.71;89.82
76345;DHT22;65160;50.504;3.666;2023-02-17T07:26:11;10.78;89.66
76345;DHT22;65160;50.504;3.666;2023-02-17T07:28:38;10.73;89.76
76345;DHT22;65160;50.504;3.666;2023-02-17T07:31:06;10.80;89.63
76345;DHT22;65160;50.504;3.666;2023-02-17T07:33:32;10.85;89.49
76345;DHT22;65160;50.504;3.666;2023-02-17T07:35:58;10.86;89.53
76345;DHT22;65160;50.504;3.666;2023-02-17T07:38:24;10.92;89.28
76345;DHT22;65160;50.504;3.666;2023-02-17T07:40:49;10.97;89.16
76345;DHT22;65160;50.504;3.666;2023-02-17T07:43:15;11.00;89.14
76345;DHT22;65160;50.504;3.666;2023-02-17T07:45:40;11.05;88.91
76345;DHT22;65160;50.504;3.666;2023-02-17T07:48:06;11.07;88.87
76345;DHT22;65160;50.504;3.666;2023-02-17T07:50:31;11.10;88.67
76345;DHT22;65160;50.504;3.666;2023-02-17T07:52:56;11.17;88.52
76345;DHT22;65160;50.504;3.666;2023-02-17T07:55:22;11.24;88.39
76345;DHT22;65160;50.504;3.666;2023-02-17T07:57:48;11.27;88.21
76345;DHT22;65160;50.504;3.666;2023-02-17T08:00:14;11.30;88.13
76345;DHT22;65160;50.504;3.666;2023-02-17T08:02:40;11.35;88.02
76345;DHT22;65160;50.504;3.666;2023-02-17T08:05:05;11.44;87.78
76345;DHT22;65160;50.504;3.666;2023-02-17T08:07:31;11.44;87.74
76345;DHT22;65160;50.504;3.666;2023-02-17T08:09:57;11.45;87.65
76345;DHT22;65160;50.504;3.666;2023-02-17T08:12:41;11.54;87.37
76345;DHT22;65160;50.504;3.666;2023-02-17T08:15:33;11.51;87.46
76345;DHT22;65160;50.504;3.666;2023-02-17T08:17:59;11.60;87.27
76345;DHT22;65160;50.504;3.666;2023-02-17T08:20:25;11.67;87.09
76345;DHT22;65160;50.504;3.666;2023-02-17T08:22:51;11.74;86.75
76345;DHT22;65160;50.504;3.666;2023-02-17T08:25:16;11.77;86.56
76345;DHT22;65160;50.504;3.666;2023-02-17T08:27:43;11.75;86.51
76345;DHT22;65160;50.504;3.666;2023-02-17T08:30:09;11.85;86.39
76345;DHT22;65160;50.504;3.666;2023-02-17T08:32:34;11.89;86.35
76345;DHT22;65160;50.504;3.666;2023-02-17T08:35:00;11.92;86.30
76345;DHT22;65160;50.504;3.666;2023-02-17T08:37:26;11.95;86.30
76345;DHT22;65160;50.504;3.666;2023-02-17T08:39:52;11.98;86.31
76345;DHT22;65160;50.504;3.666;2023-02-17T08:42:17;12.02;86.31
76345;DHT22;65160;50.504;3.666;2023-02-17T08:44:43;12.03;86.44
76345;DHT22;65160;50.504;3.666;2023-02-17T08:47:09;12.06;86.38
76345;DHT22;65160;50.504;3.666;2023-02-17T08:49:34;12.12;86.35
76345;DHT22;65160;50.504;3.666;2023-02-17T08:52:00;12.12;86.34
76345;DHT22;65160;50.504;3.666;2023-02-17T08:54:26;12.12;86.29
76345;DHT22;65160;50.504;3.666;2023-02-17T08:56:52;12.17;86.11
76345;DHT22;65160;50.504;3.666;2023-02-17T08:59:18;12.25;86.02
76345;DHT22;65160;50.504;3.666;2023-02-17T09:01:43;12.30;85.94
76345;DHT22;65160;50.504;3.666;2023-02-17T09:04:10;12.34;85.80
76345;DHT22;65160;50.504;3.666;2023-02-17T09:06:37;12.38;85.86
76345;DHT22;65160;50.504;3.666;2023-02-17T09:09:05;12.43;85.62
76345;DHT22;65160;50.504;3.666;2023-02-17T09:11:31;12.53;85.54
76345;DHT22;65160;50.504;3.666;2023-02-17T09:13:56;12.54;85.27
76345;DHT22;65160;50.504;3.666;2023-02-17T09:16:22;12.57;85.41
76345;DHT22;65160;50.504;3.666;2023-02-17T09:18:50;12.58;85.30
76345;DHT22;65160;50.504;3.666;2023-02-17T09:21:16;12.63;85.11
76345;DHT22;65160;50.504;3.666;2023-02-17T09:23:42;12.63;84.80
76345;DHT22;65160;50.504;3.666;2023-02-17T09:26:10;12.82;84.60
76345;DHT22;65160;50.504;3.666;2023-02-17T09:28:36;12.87;83.89
76345;DHT22;65160;50.504;3.666;2023-02-17T09:31:20;12.93;83.48
76345;DHT22;65160;50.504;3.666;2023-02-17T09:33:47;12.95;82.91
76345;DHT22;65160;50.504;3.666;2023-02-17T09:36:18;12.99;82.03
76345;DHT22;65160;50.504;3.666;2023-02-17T09:38:45;13.08;81.55
76345;DHT22;65160;50.504;3.666;2023-02-17T09:44:28;13.24;81.19
76345;DHT22;65160;50.504;3.666;2023-02-17T09:49:24;13.39;80.23
76345;DHT22;65160;50.504;3.666;2023-02-17T09:57:20;13.82;78.79
76345;DHT22;65160;50.504;3.666;2023-02-17T10:00:06;13.77;78.12
76345;DHT22;65160;50.504;3.666;2023-02-17T10:05:22;13.60;78.96
76345;DHT22;65160;50.504;3.666;2023-02-17T10:08:06;13.61;78.70
76345;DHT22;65160;50.504;3.666;2023-02-17T10:10:45;13.46;79.26
76345;DHT22;65160;50.504;3.666;2023-02-17T10:13:14;13.46;79.34
76345;DHT22;65160;50.504;3.666;2023-02-17T10:15:44;13.39;78.59
76345;DHT22;65160;50.504;3.666;2023-02-17T10:18:29;13.29;79.05
76345;DHT22;65160;50.504;3.666;2023-02-17T10:21:03;13.32;78.93
76345;DHT22;65160;50.504;3.666;2023-02-17T10:23:32;13.47;78.65
76345;DHT22;65160;50.504;3.666;2023-02-17T10:28:50;13.78;77.71
76345;DHT22;65160;50.504;3.666;2023-02-17T10:31:44;13.86;77.27
76345;DHT22;65160;50.504;3.666;2023-02-17T10:36:58;14.16;76.26
76345;DHT22;65160;50.504;3.666;2023-02-17T10:39:49;14.78;75.37
76345;DHT22;65160;50.504;3.666;2023-02-17T10:42:23;14.88;74.82
76345;DHT22;65160;50.504;3.666;2023-02-17T10:44:51;14.95;73.82
76345;DHT22;65160;50.504;3.666;2023-02-17T10:47:20;14.91;74.17
76345;DHT22;65160;50.504;3.666;2023-02-17T10:49:49;14.55;74.97
76345;DHT22;65160;50.504;3.666;2023-02-17T10:52:39;14.36;75.54
76345;DHT22;65160;50.504;3.666;2023-02-17T10:55:13;14.32;75.92
76345;DHT22;65160;50.504;3.666;2023-02-17T10:57:43;14.59;75.21
76345;DHT22;65160;50.504;3.666;2023-02-17T11:00:15;14.55;75.73
76345;DHT22;65160;50.504;3.666;2023-02-17T11:02:43;14.66;75.06
76345;DHT22;65160;50.504;3.666;2023-02-17T11:05:30;14.61;74.85
76345;DHT22;65160;50.504;3.666;2023-02-17T11:08:00;14.71;74.63
76345;DHT22;65160;50.504;3.666;2023-02-17T11:10:39;14.60;74.38
76345;DHT22;65160;50.504;3.666;2023-02-17T11:13:39;14.67;74.72
76345;DHT22;65160;50.504;3.666;2023-02-17T11:16:33;14.74;74.52
76345;DHT22;65160;50.504;3.666;2023-02-17T11:19:00;14.59;74.43
76345;DHT22;65160;50.504;3.666;2023-02-17T11:21:27;14.61;74.68
76345;DHT22;65160;50.504;3.666;2023-02-17T11:24:03;14.55;74.17
76345;DHT22;65160;50.504;3.666;2023-02-17T11:26:34;14.73;74.19
76345;DHT22;65160;50.504;3.666;2023-02-17T11:29:17;14.73;74.36
76345;DHT22;65160;50.504;3.666;2023-02-17T11:31:56;14.83;73.85
76345;DHT22;65160;50.504;3.666;2023-02-17T11:34:26;14.67;73.76
76345;DHT22;65160;50.504;3.666;2023-02-17T11:37:02;14.73;74.26
76345;DHT22;65160;50.504;3.666;2023-02-17T11:39:35;14.68;74.15
76345;DHT22;65160;50.504;3.666;2023-02-17T11:42:01;14.63;74.80
76345;DHT22;65160;50.504;3.666;2023-02-17T11:44:27;14.64;74.84
76345;DHT22;65160;50.504;3.666;2023-02-17T11:49:32;14.25;74.96
76345;DHT22;65160;50.504;3.666;2023-02-17T11:57:40;13.58;75.81
76345;DHT22;65160;50.504;3.666;2023-02-17T12:11:38;13.16;77.57
76345;DHT22;65160;50.504;3.666;2023-02-17T12:17:03;13.08;78.02
76345;DHT22;65160;50.504;3.666;2023-02-17T12:19:40;13.12;77.89
76345;DHT22;65160;50.504;3.666;2023-02-17T12:22:16;13.18;77.14
76345;DHT22;65160;50.504;3.666;2023-02-17T12:24:49;13.23;76.25
76345;DHT22;65160;50.504;3.666;2023-02-17T12:30:51;13.40;75.78
76345;DHT22;65160;50.504;3.666;2023-02-17T12:33:55;13.56;75.66
76345;DHT22;65160;50.504;3.666;2023-02-17T12:36:21;13.43;75.55
76345;DHT22;65160;50.504;3.666;2023-02-17T12:39:00;13.37;76.40
76345;DHT22;65160;50.504;3.666;2023-02-17T12:41:36;13.30;75.98
76345;DHT22;65160;50.504;3.666;2023-02-17T12:44:19;13.37;75.82
76345;DHT22;65160;50.504;3.666;2023-02-17T12:46:49;13.50;75.60
76345;DHT22;65160;50.504;3.666;2023-02-17T12:49:35;13.86;74.48
76345;DHT22;65160;50.504;3.666;2023-02-17T12:54:49;13.97;73.72
76345;DHT22;65160;50.504;3.666;2023-02-17T13:00:35;13.54;74.42
76345;DHT22;65160;50.504;3.666;2023-02-17T13:02:59;14.18;72.63
76345;DHT22;65160;50.504;3.666;2023-02-17T13:08:46;14.09;72.20
76345;DHT22;65160;50.504;3.666;2023-02-17T13:11:32;13.86;72.63
76345;DHT22;65160;50.504;3.666;2023-02-17T13:14:27;13.77;73.36
76345;DHT22;65160;50.504;3.666;2023-02-17T13:16:53;13.81;74.32
76345;DHT22;65160;50.504;3.666;2023-02-17T13:19:31;13.60;74.59
76345;DHT22;65160;50.504;3.666;2023-02-17T13:21:57;13.50;75.01
76345;DHT22;65160;50.504;3.666;2023-02-17T13:24:39;13.24;75.14
76345;DHT22;65160;50.504;3.666;2023-02-17T13:30:38;13.10;75.47
76345;DHT22;65160;50.504;3.666;2023-02-17T13:33:05;13.09;76.04
76345;DHT22;65160;50.504;3.666;2023-02-17T13:35:34;13.03;76.04
76345;DHT22;65160;50.504;3.666;2023-02-17T13:38:00;12.96;76.47
76345;DHT22;65160;50.504;3.666;2023-02-17T13:43:07;12.82;76.87
76345;DHT22;65160;50.504;3.666;2023-02-17T13:45:57;12.72;77.20
76345;DHT22;65160;50.504;3.666;2023-02-17T13:48:27;12.75;77.04
76345;DHT22;65160;50.504;3.666;2023-02-17T13:53:34;12.57;77.73
76345;DHT22;65160;50.504;3.666;2023-02-17T13:58:41;12.53;77.77
76345;DHT22;65160;50.504;3.666;2023-02-17T14:01:14;12.46;78.31
76345;DHT22;65160;50.504;3.666;2023-02-17T14:06:26;12.57;77.98
76345;DHT22;65160;50.504;3.666;2023-02-17T14:08:53;12.58;77.54
76345;DHT22;65160;50.504;3.666;2023-02-17T14:11:21;12.64;77.55
76345;DHT22;65160;50.504;3.666;2023-02-17T14:13:49;12.54;77.56
76345;DHT22;65160;50.504;3.666;2023-02-17T14:16:35;12.72;78.21
76345;DHT22;65160;50.504;3.666;2023-02-17T14:19:07;12.65;77.25
76345;DHT22;65160;50.504;3.666;2023-02-17T14:21:33;12.60;77.98
76345;DHT22;65160;50.504;3.666;2023-02-17T14:23:59;12.61;77.68
76345;DHT22;65160;50.504;3.666;2023-02-17T14:26:46;12.63;77.69
76345;DHT22;65160;50.504;3.666;2023-02-17T14:29:13;12.63;77.97
76345;DHT22;65160;50.504;3.666;2023-02-17T14:31:45;12.50;78.08
76345;DHT22;65160;50.504;3.666;2023-02-17T14:34:32;12.32;78.81
76345;DHT22;65160;50.504;3.666;2023-02-17T14:37:16;12.32;79.00
76345;DHT22;65160;50.504;3.666;2023-02-17T14:39:43;12.38;78.78
76345;DHT22;65160;50.504;3.666;2023-02-17T14:42:08;12.26;79.17
76345;DHT22;65160;50.504;3.666;2023-02-17T14:44:34;12.20;79.42
76345;DHT22;65160;50.504;3.666;2023-02-17T14:46:59;12.22;79.47
76345;DHT22;65160;50.504;3.666;2023-02-17T14:49:25;12.22;79.44
76345;DHT22;65160;50.504;3.666;2023-02-17T14:51:50;12.32;79.53
76345;DHT22;65160;50.504;3.666;2023-02-17T14:54:17;12.32;79.63
76345;DHT22;65160;50.504;3.666;2023-02-17T14:56:59;12.22;79.41
76345;DHT22;65160;50.504;3.666;2023-02-17T14:59:26;12.23;79.88
76345;DHT22;65160;50.504;3.666;2023-02-17T15:01:52;12.27;79.39
76345;DHT22;65160;50.504;3.666;2023-02-17T15:04:17;12.19;79.68
76345;DHT22;65160;50.504;3.666;2023-02-17T15:06:46;12.09;80.23
76345;DHT22;65160;50.504;3.666;2023-02-17T15:09:14;12.06;80.25
76345;DHT22;65160;50.504;3.666;2023-02-17T15:11:41;12.08;80.29
76345;DHT22;65160;50.504;3.666;2023-02-17T15:14:17;12.06;80.27
76345;DHT22;65160;50.504;3.666;2023-02-17T15:16:44;12.12;80.09
76345;DHT22;65160;50.504;3.666;2023-02-17T15:19:11;12.10;79.92
76345;DHT22;65160;50.504;3.666;2023-02-17T15:21:38;11.98;80.20
76345;DHT22;65160;50.504;3.666;2023-02-17T15:24:33;11.95;80.62
76345;DHT22;65160;50.504;3.666;2023-02-17T15:26:58;11.93;80.50
76345;DHT22;65160;50.504;3.666;2023-02-17T15:29:24;12.02;80.58
76345;DHT22;65160;50.504;3.666;2023-02-17T15:31:52;12.03;80.51
76345;DHT22;65160;50.504;3.666;2023-02-17T15:34:22;11.99;80.09
76345;DHT22;65160;50.504;3.666;2023-02-17T15:36:48;11.89;80.50
76345;DHT22;65160;50.504;3.666;2023-02-17T15:39:16;11.93;80.44
76345;DHT22;65160;50.504;3.666;2023-02-17T15:41:43;11.90;80.62
76345;DHT22;65160;50.504;3.666;2023-02-17T15:44:21;11.93;80.58
76345;DHT22;65160;50.504;3.666;2023-02-17T15:46:49;11.92;80.69
76345;DHT22;65160;50.504;3.666;2023-02-17T15:49:15;11.93;80.89
76345;DHT22;65160;50.504;3.666;2023-02-17T15:51:40;11.93;80.71
76345;DHT22;65160;50.504;3.666;2023-02-17T15:54:06;11.90;80.78
76345;DHT22;65160;50.504;3.666;2023-02-17T15:56:44;11.88;80.76
76345;DHT22;65160;50.504;3.666;2023-02-17T15:59:16;11.86;81.14
76345;DHT22;65160;50.504;3.666;2023-02-17T16:01:42;11.89;80.85
76345;DHT22;65160;50.504;3.666;2023-02-17T16:04:10;11.81;81.12
76345;DHT22;65160;50.504;3.666;2023-02-17T16:06:36;11.77;81.57
76345;DHT22;65160;50.504;3.666;2023-02-17T16:09:02;11.67;81.82
76345;DHT22;65160;50.504;3.666;2023-02-17T16:11:27;11.74;81.93
76345;DHT22;65160;50.504;3.666;2023-02-17T16:13:54;11.71;81.89
76345;DHT22;65160;50.504;3.666;2023-02-17T16:16:28;11.67;82.36
76345;DHT22;65160;50.504;3.666;2023-02-17T16:18:56;11.62;82.53
76345;DHT22;65160;50.504;3.666;2023-02-17T16:21:22;11.62;82.68
76345;DHT22;65160;50.504;3.666;2023-02-17T16:23:48;11.64;82.63
76345;DHT22;65160;50.504;3.666;2023-02-17T16:26:31;11.53;83.12
76345;DHT22;65160;50.504;3.666;2023-02-17T16:28:59;11.54;83.17
76345;DHT22;65160;50.504;3.666;2023-02-17T16:31:25;11.53;83.33
76345;DHT22;65160;50.504;3.666;2023-02-17T16:33:50;11.54;83.29
76345;DHT22;65160;50.504;3.666;2023-02-17T16:36:19;11.54;83.26
76345;DHT22;65160;50.504;3.666;2023-02-17T16:38:47;11.53;83.60
76345;DHT22;65160;50.504;3.666;2023-02-17T16:41:16;11.53;83.64
76345;DHT22;65160;50.504;3.666;2023-02-17T16:43:41;11.47;83.95
76345;DHT22;65160;50.504;3.666;2023-02-17T16:46:17;11.44;84.28
76345;DHT22;65160;50.504;3.666;2023-02-17T16:48:43;11.38;84.80
76345;DHT22;65160;50.504;3.666;2023-02-17T16:51:09;11.33;85.26
76345;DHT22;65160;50.504;3.666;2023-02-17T16:53:34;11.33;85.58
76345;DHT22;65160;50.504;3.666;2023-02-17T16:56:08;11.28;86.13
76345;DHT22;65160;50.504;3.666;2023-02-17T16:58:39;11.30;86.17
76345;DHT22;65160;50.504;3.666;2023-02-17T17:01:05;11.23;86.82
76345;DHT22;65160;50.504;3.666;2023-02-17T17:03:36;11.19;87.09
76345;DHT22;65160;50.504;3.666;2023-02-17T17:08:39;11.12;87.56
76345;DHT22;65160;50.504;3.666;2023-02-17T17:11:04;11.07;87.72